Terminal Aerodrome Forecast
Issued by NWS

Home | Current Version | Previous Version | Text Only | Print | Product List | Glossary On
Versions: 1 2 3 4 5 6 7 8 9 10 11 12 13 14 15
000
FTUS44 KEPZ 311142
TAFTCS
TAF
KTCS 311142Z 3112/0112 29006KT P6SM SCT250
     FM312100 21009KT P6SM VCTS SCT080CB SCT250
     FM010300 30007KT P6SM FEW080 SCT250=

USA.gov is the U.S. government's official web portal to all federal, state and local government web resources and services.